Monterey, CA (93940)

9:39 PM PDT on April 27, 2017 (GMT -0700)
Oak Grove, Monterey CA | | Change Station

Elev 60 ft 36.60 °N, 121.88 °W | Updated 3 seconds ago

Clear
Clear
54.1 °F
Feels Like 54.1 °F
N
5.1
Wind Variable Wind from West
Gusts 12.0 mph

Today
High -- | Low -- °F
--% Chance of Precip.
Yesterday
High -- | Low -- °F
Precip. -- in
Pressure 30.10 in
Visibility 10.0 miles
Clouds Clear
Dew Point 44 °F
Humidity 70%
Rainfall 0.00 in
Snow Depth Not available.
6:18 AM 7:52 PM
Waxing Crescent, 4% visible
METAR KMRY 280354Z AUTO 26010G19KT 10SM CLR 13/06 A3006 RMK AO2 SLP191 T01280061
Pressure 30.10 in
Visibility 10.0 miles
Clouds Clear
Dew Point 44 °F
Humidity 70%
Rainfall 0.00 in
Snow Depth Not available.
6:18 AM 7:52 PM
Waxing Crescent, 4% visible
METAR KMRY 280354Z AUTO 26010G19KT 10SM CLR 13/06 A3006 RMK AO2 SLP191 T01280061

Get Severe Weather Alerts

Thanks for signing up!

Be on the lookout for a verification email in your inbox.

You'll start receiving the daily forecast at 8 AM.

×

10-Day Weather Forecast

Almanac

Astronomy

Apr. 27, 2017 Rise Set
Actual Time
Civil Twilight
Nautical Twilight
Astronomical Twilight
Moon
Length of Visible Light
Length of Day
Tomorrow will be .
, % of the Moon is Illuminated

Today's Extremes

State Highs State Lows

Community

WunderPhotos

WunderBlog® & News

Nearby

Air Quality

  Air Quality AQ Index Pollutant
Not available.

Snow Depth

Station Depth Elevation

Earthquake Activity

City Distance Mag. Time & Date
Minimum magnitude displayed is 2.5.

Coastal Water Temperatures

Place Temperature

Stations

Nearby Weather Stations

Station Location Temp. Windchill Dew Point Humidity Wind Precip. Elev Updated Type
                   

Watches & Warnings

There are currently no watches in effect.